sensor_id;sensor_type;location;lat;lon;timestamp;P1;durP1;ratioP1;P2;durP2;ratioP2
58990;SDS011;44781;53.444;14.476;2023-04-03T03:08:24;7.60;;;2.70;;
58990;SDS011;44781;53.444;14.476;2023-04-03T06:53:33;5.10;;;2.00;;
58990;SDS011;44781;53.444;14.476;2023-04-03T07:00:30;5.80;;;2.30;;
58990;SDS011;44781;53.444;14.476;2023-04-03T07:02:57;7.30;;;2.40;;
58990;SDS011;44781;53.444;14.476;2023-04-03T07:05:25;7.20;;;2.50;;
58990;SDS011;44781;53.444;14.476;2023-04-03T07:07:53;8.70;;;3.00;;
58990;SDS011;44781;53.444;14.476;2023-04-03T07:10:20;6.00;;;2.60;;
58990;SDS011;44781;53.444;14.476;2023-04-03T07:12:55;7.90;;;2.60;;
58990;SDS011;44781;53.444;14.476;2023-04-03T07:15:23;9.80;;;2.90;;
58990;SDS011;44781;53.444;14.476;2023-04-03T07:20:42;9.30;;;3.40;;
58990;SDS011;44781;53.444;14.476;2023-04-03T07:23:22;8.50;;;2.50;;
58990;SDS011;44781;53.444;14.476;2023-04-03T07:25:50;6.60;;;2.20;;
58990;SDS011;44781;53.444;14.476;2023-04-03T07:28:19;4.00;;;1.90;;
58990;SDS011;44781;53.444;14.476;2023-04-03T07:31:04;6.40;;;2.30;;
58990;SDS011;44781;53.444;14.476;2023-04-03T07:33:40;5.40;;;1.80;;
58990;SDS011;44781;53.444;14.476;2023-04-03T07:36:11;6.80;;;2.50;;
58990;SDS011;44781;53.444;14.476;2023-04-03T07:46:07;4.90;;;1.60;;
58990;SDS011;44781;53.444;14.476;2023-04-03T07:49:06;4.20;;;1.50;;
58990;SDS011;44781;53.444;14.476;2023-04-03T08:34:43;6.20;;;1.70;;
58990;SDS011;44781;53.444;14.476;2023-04-03T09:59:57;4.90;;;1.70;;
58990;SDS011;44781;53.444;14.476;2023-04-03T10:10:45;4.10;;;1.60;;
58990;SDS011;44781;53.444;14.476;2023-04-03T10:14:28;5.10;;;1.60;;
58990;SDS011;44781;53.444;14.476;2023-04-03T10:18:00;3.70;;;1.50;;
58990;SDS011;44781;53.444;14.476;2023-04-03T10:24:00;5.00;;;1.40;;
58990;SDS011;44781;53.444;14.476;2023-04-03T11:10:21;7.00;;;2.20;;
58990;SDS011;44781;53.444;14.476;2023-04-03T14:37:40;6.80;;;1.60;;
58990;SDS011;44781;53.444;14.476;2023-04-03T16:28:30;3.30;;;1.10;;
58990;SDS011;44781;53.444;14.476;2023-04-03T16:31:37;5.70;;;1.50;;
58990;SDS011;44781;53.444;14.476;2023-04-03T16:34:13;4.70;;;1.30;;
58990;SDS011;44781;53.444;14.476;2023-04-03T16:37:06;4.80;;;1.40;;
58990;SDS011;44781;53.444;14.476;2023-04-03T16:39:58;5.10;;;1.60;;
58990;SDS011;44781;53.444;14.476;2023-04-03T16:47:09;5.20;;;1.80;;
58990;SDS011;44781;53.444;14.476;2023-04-03T16:54:39;3.90;;;1.40;;
58990;SDS011;44781;53.444;14.476;2023-04-03T17:01:23;3.60;;;1.20;;
58990;SDS011;44781;53.444;14.476;2023-04-03T17:05:18;6.50;;;2.40;;
58990;SDS011;44781;53.444;14.476;2023-04-03T17:08:40;5.30;;;1.80;;
58990;SDS011;44781;53.444;14.476;2023-04-03T17:20:14;6.60;;;1.80;;
58990;SDS011;44781;53.444;14.476;2023-04-03T18:19:45;6.80;;;2.50;;
58990;SDS011;44781;53.444;14.476;2023-04-03T18:22:46;6.50;;;2.30;;
58990;SDS011;44781;53.444;14.476;2023-04-03T18:30:33;8.60;;;3.30;;
58990;SDS011;44781;53.444;14.476;2023-04-03T18:33:08;9.80;;;3.20;;
58990;SDS011;44781;53.444;14.476;2023-04-03T18:36:35;7.20;;;2.50;;
58990;SDS011;44781;53.444;14.476;2023-04-03T18:39:13;7.00;;;2.50;;
58990;SDS011;44781;53.444;14.476;2023-04-03T18:41:56;5.80;;;2.30;;
58990;SDS011;44781;53.444;14.476;2023-04-03T18:44:50;8.20;;;3.30;;
58990;SDS011;44781;53.444;14.476;2023-04-03T18:47:25;7.50;;;2.60;;
58990;SDS011;44781;53.444;14.476;2023-04-03T18:50:03;8.10;;;3.30;;
58990;SDS011;44781;53.444;14.476;2023-04-03T18:52:51;7.60;;;2.70;;
58990;SDS011;44781;53.444;14.476;2023-04-03T18:55:29;9.30;;;3.70;;
58990;SDS011;44781;53.444;14.476;2023-04-03T19:06:09;9.30;;;4.20;;
58990;SDS011;44781;53.444;14.476;2023-04-03T19:12:29;9.40;;;4.50;;
58990;SDS011;44781;53.444;14.476;2023-04-03T19:15:45;9.30;;;4.10;;
58990;SDS011;44781;53.444;14.476;2023-04-03T19:19:11;9.90;;;3.60;;
58990;SDS011;44781;53.444;14.476;2023-04-03T19:22:31;7.50;;;3.20;;
58990;SDS011;44781;53.444;14.476;2023-04-03T19:25:24;9.40;;;3.40;;
58990;SDS011;44781;53.444;14.476;2023-04-03T19:28:31;8.10;;;2.90;;
58990;SDS011;44781;53.444;14.476;2023-04-03T19:31:33;5.20;;;2.50;;
58990;SDS011;44781;53.444;14.476;2023-04-03T19:34:42;7.70;;;3.10;;
58990;SDS011;44781;53.444;14.476;2023-04-03T19:38:14;7.10;;;3.00;;
58990;SDS011;44781;53.444;14.476;2023-04-03T19:41:04;8.50;;;3.90;;
58990;SDS011;44781;53.444;14.476;2023-04-03T19:44:20;8.80;;;3.40;;
58990;SDS011;44781;53.444;14.476;2023-04-03T19:47:12;9.40;;;3.80;;
58990;SDS011;44781;53.444;14.476;2023-04-03T19:49:51;9.80;;;4.00;;
58990;SDS011;44781;53.444;14.476;2023-04-03T19:52:24;11.80;;;4.10;;
58990;SDS011;44781;53.444;14.476;2023-04-03T19:55:49;8.80;;;3.80;;
58990;SDS011;44781;53.444;14.476;2023-04-03T19:58:57;9.00;;;3.90;;
58990;SDS011;44781;53.444;14.476;2023-04-03T20:02:07;6.80;;;3.00;;
58990;SDS011;44781;53.444;14.476;2023-04-03T20:04:56;5.20;;;2.00;;
58990;SDS011;44781;53.444;14.476;2023-04-03T20:08:03;5.90;;;2.70;;
58990;SDS011;44781;53.444;14.476;2023-04-03T20:11:12;7.60;;;2.70;;
58990;SDS011;44781;53.444;14.476;2023-04-03T20:14:02;6.80;;;2.80;;
58990;SDS011;44781;53.444;14.476;2023-04-03T20:16:39;6.90;;;2.80;;
58990;SDS011;44781;53.444;14.476;2023-04-03T20:19:13;10.30;;;2.90;;
58990;SDS011;44781;53.444;14.476;2023-04-03T20:26:38;10.30;;;3.70;;
58990;SDS011;44781;53.444;14.476;2023-04-03T20:38:13;10.70;;;4.20;;
58990;SDS011;44781;53.444;14.476;2023-04-03T21:39:03;13.80;;;5.20;;
58990;SDS011;44781;53.444;14.476;2023-04-03T21:42:09;14.70;;;6.00;;
58990;SDS011;44781;53.444;14.476;2023-04-03T21:45:21;12.40;;;6.60;;
58990;SDS011;44781;53.444;14.476;2023-04-03T23:29:46;37.70;;;12.70;;
58990;SDS011;44781;53.444;14.476;2023-04-03T23:33:40;27.10;;;12.00;;
